sensor_id;sensor_type;location;lat;lon;timestamp;P1;durP1;ratioP1;P2;durP2;ratioP2
8098;SDS011;4092;47.876;9.372;2023-06-22T00:01:20;6.93;;;4.17;;
8098;SDS011;4092;47.876;9.372;2023-06-22T00:03:48;11.73;;;4.03;;
8098;SDS011;4092;47.876;9.372;2023-06-22T00:06:15;5.00;;;3.90;;
8098;SDS011;4092;47.876;9.372;2023-06-22T00:08:42;8.07;;;3.70;;
8098;SDS011;4092;47.876;9.372;2023-06-22T00:11:09;6.20;;;3.00;;
8098;SDS011;4092;47.876;9.372;2023-06-22T00:13:38;7.83;;;3.83;;
8098;SDS011;4092;47.876;9.372;2023-06-22T00:16:05;7.63;;;4.13;;
8098;SDS011;4092;47.876;9.372;2023-06-22T00:18:32;7.13;;;3.90;;
8098;SDS011;4092;47.876;9.372;2023-06-22T00:21:00;10.70;;;5.30;;
8098;SDS011;4092;47.876;9.372;2023-06-22T00:23:27;7.37;;;3.20;;
8098;SDS011;4092;47.876;9.372;2023-06-22T00:25:59;14.03;;;4.00;;
8098;SDS011;4092;47.876;9.372;2023-06-22T00:28:25;11.43;;;3.33;;
8098;SDS011;4092;47.876;9.372;2023-06-22T00:30:55;5.23;;;3.07;;
8098;SDS011;4092;47.876;9.372;2023-06-22T00:33:22;7.80;;;3.80;;
8098;SDS011;4092;47.876;9.372;2023-06-22T00:35:49;12.60;;;3.40;;
8098;SDS011;4092;47.876;9.372;2023-06-22T00:38:17;8.93;;;4.80;;
8098;SDS011;4092;47.876;9.372;2023-06-22T00:40:44;10.30;;;4.13;;
8098;SDS011;4092;47.876;9.372;2023-06-22T00:43:11;6.43;;;2.87;;
8098;SDS011;4092;47.876;9.372;2023-06-22T00:45:38;9.80;;;4.70;;
8098;SDS011;4092;47.876;9.372;2023-06-22T00:48:06;9.90;;;4.17;;
8098;SDS011;4092;47.876;9.372;2023-06-22T00:50:34;12.83;;;3.80;;
8098;SDS011;4092;47.876;9.372;2023-06-22T00:53:03;9.70;;;4.40;;
8098;SDS011;4092;47.876;9.372;2023-06-22T00:55:33;3.50;;;3.03;;
8098;SDS011;4092;47.876;9.372;2023-06-22T00:58:03;7.83;;;4.43;;
8098;SDS011;4092;47.876;9.372;2023-06-22T01:00:33;10.70;;;5.43;;
8098;SDS011;4092;47.876;9.372;2023-06-22T01:03:01;8.40;;;4.53;;
8098;SDS011;4092;47.876;9.372;2023-06-22T01:05:30;7.07;;;3.60;;
8098;SDS011;4092;47.876;9.372;2023-06-22T01:08:14;8.37;;;4.07;;
8098;SDS011;4092;47.876;9.372;2023-06-22T01:10:50;7.03;;;3.60;;
8098;SDS011;4092;47.876;9.372;2023-06-22T01:13:22;8.70;;;4.93;;
8098;SDS011;4092;47.876;9.372;2023-06-22T01:15:55;7.53;;;5.27;;
8098;SDS011;4092;47.876;9.372;2023-06-22T01:18:26;6.00;;;3.60;;
8098;SDS011;4092;47.876;9.372;2023-06-22T01:20:58;7.03;;;4.20;;
8098;SDS011;4092;47.876;9.372;2023-06-22T01:23:29;9.00;;;4.30;;
8098;SDS011;4092;47.876;9.372;2023-06-22T01:26:06;16.03;;;4.67;;
8098;SDS011;4092;47.876;9.372;2023-06-22T01:28:45;7.40;;;4.37;;
8098;SDS011;4092;47.876;9.372;2023-06-22T01:31:13;8.97;;;5.57;;
8098;SDS011;4092;47.876;9.372;2023-06-22T01:33:43;14.63;;;5.63;;
8098;SDS011;4092;47.876;9.372;2023-06-22T01:36:13;11.80;;;4.00;;
8098;SDS011;4092;47.876;9.372;2023-06-22T01:38:41;11.00;;;4.80;;
8098;SDS011;4092;47.876;9.372;2023-06-22T01:41:09;13.60;;;5.40;;
8098;SDS011;4092;47.876;9.372;2023-06-22T01:43:37;12.50;;;5.03;;
8098;SDS011;4092;47.876;9.372;2023-06-22T01:46:06;12.20;;;5.33;;
8098;SDS011;4092;47.876;9.372;2023-06-22T01:48:34;7.83;;;4.17;;
8098;SDS011;4092;47.876;9.372;2023-06-22T01:51:01;11.10;;;4.97;;
8098;SDS011;4092;47.876;9.372;2023-06-22T01:53:29;10.00;;;5.00;;
8098;SDS011;4092;47.876;9.372;2023-06-22T01:55:56;8.00;;;3.67;;
8098;SDS011;4092;47.876;9.372;2023-06-22T01:58:25;10.37;;;4.73;;
8098;SDS011;4092;47.876;9.372;2023-06-22T02:00:56;7.30;;;4.77;;
8098;SDS011;4092;47.876;9.372;2023-06-22T02:03:31;8.67;;;4.67;;
8098;SDS011;4092;47.876;9.372;2023-06-22T02:06:03;6.87;;;4.73;;
8098;SDS011;4092;47.876;9.372;2023-06-22T02:08:35;8.00;;;5.67;;
8098;SDS011;4092;47.876;9.372;2023-06-22T02:11:09;19.83;;;5.00;;
8098;SDS011;4092;47.876;9.372;2023-06-22T02:13:39;7.70;;;4.27;;
8098;SDS011;4092;47.876;9.372;2023-06-22T02:16:08;10.60;;;3.97;;
8098;SDS011;4092;47.876;9.372;2023-06-22T02:18:37;11.93;;;4.87;;
8098;SDS011;4092;47.876;9.372;2023-06-22T02:21:05;7.10;;;4.60;;
8098;SDS011;4092;47.876;9.372;2023-06-22T02:23:32;14.80;;;5.70;;
8098;SDS011;4092;47.876;9.372;2023-06-22T02:26:00;10.47;;;5.17;;
8098;SDS011;4092;47.876;9.372;2023-06-22T02:28:28;18.70;;;4.70;;
8098;SDS011;4092;47.876;9.372;2023-06-22T02:30:56;7.77;;;5.73;;
8098;SDS011;4092;47.876;9.372;2023-06-22T02:33:23;16.37;;;5.17;;
8098;SDS011;4092;47.876;9.372;2023-06-22T02:35:51;9.90;;;5.27;;
8098;SDS011;4092;47.876;9.372;2023-06-22T02:38:18;10.93;;;5.20;;
8098;SDS011;4092;47.876;9.372;2023-06-22T02:40:45;13.60;;;5.57;;
8098;SDS011;4092;47.876;9.372;2023-06-22T02:43:12;12.10;;;5.90;;
8098;SDS011;4092;47.876;9.372;2023-06-22T02:45:39;8.57;;;5.90;;
8098;SDS011;4092;47.876;9.372;2023-06-22T02:48:06;9.67;;;4.93;;
8098;SDS011;4092;47.876;9.372;2023-06-22T02:50:33;11.10;;;5.07;;
8098;SDS011;4092;47.876;9.372;2023-06-22T02:53:01;11.13;;;5.67;;
8098;SDS011;4092;47.876;9.372;2023-06-22T02:55:28;13.60;;;5.70;;
8098;SDS011;4092;47.876;9.372;2023-06-22T02:57:56;14.00;;;7.13;;
8098;SDS011;4092;47.876;9.372;2023-06-22T03:00:24;11.10;;;5.17;;
8098;SDS011;4092;47.876;9.372;2023-06-22T03:02:55;15.37;;;5.70;;
8098;SDS011;4092;47.876;9.372;2023-06-22T03:05:23;8.33;;;6.10;;
8098;SDS011;4092;47.876;9.372;2023-06-22T03:07:51;18.03;;;6.93;;
8098;SDS011;4092;47.876;9.372;2023-06-22T03:10:19;6.97;;;4.07;;
8098;SDS011;4092;47.876;9.372;2023-06-22T03:12:46;8.73;;;5.97;;
8098;SDS011;4092;47.876;9.372;2023-06-22T03:15:13;10.97;;;6.30;;
8098;SDS011;4092;47.876;9.372;2023-06-22T03:17:42;13.13;;;6.07;;
8098;SDS011;4092;47.876;9.372;2023-06-22T03:20:09;15.40;;;6.13;;
8098;SDS011;4092;47.876;9.372;2023-06-22T03:22:38;14.83;;;6.80;;
8098;SDS011;4092;47.876;9.372;2023-06-22T03:25:06;11.17;;;5.77;;
8098;SDS011;4092;47.876;9.372;2023-06-22T03:27:39;9.63;;;6.40;;
8098;SDS011;4092;47.876;9.372;2023-06-22T03:30:07;15.70;;;6.43;;
8098;SDS011;4092;47.876;9.372;2023-06-22T03:32:36;12.47;;;6.13;;
8098;SDS011;4092;47.876;9.372;2023-06-22T03:35:03;9.53;;;5.23;;
8098;SDS011;4092;47.876;9.372;2023-06-22T03:37:31;16.47;;;6.10;;
8098;SDS011;4092;47.876;9.372;2023-06-22T03:39:58;9.00;;;6.13;;
8098;SDS011;4092;47.876;9.372;2023-06-22T03:42:25;8.93;;;5.63;;
8098;SDS011;4092;47.876;9.372;2023-06-22T03:44:54;12.20;;;5.70;;
8098;SDS011;4092;47.876;9.372;2023-06-22T03:47:21;13.67;;;5.93;;
8098;SDS011;4092;47.876;9.372;2023-06-22T03:49:48;12.30;;;6.50;;
8098;SDS011;4092;47.876;9.372;2023-06-22T03:52:20;8.33;;;4.60;;
8098;SDS011;4092;47.876;9.372;2023-06-22T03:54:47;10.60;;;5.50;;
8098;SDS011;4092;47.876;9.372;2023-06-22T03:57:14;7.20;;;5.30;;
8098;SDS011;4092;47.876;9.372;2023-06-22T03:59:41;16.13;;;6.07;;
8098;SDS011;4092;47.876;9.372;2023-06-22T04:02:10;9.77;;;5.70;;
8098;SDS011;4092;47.876;9.372;2023-06-22T04:04:37;11.67;;;5.70;;
8098;SDS011;4092;47.876;9.372;2023-06-22T04:07:04;9.30;;;6.13;;
8098;SDS011;4092;47.876;9.372;2023-06-22T04:09:31;10.87;;;6.40;;
8098;SDS011;4092;47.876;9.372;2023-06-22T04:11:58;9.03;;;5.63;;
8098;SDS011;4092;47.876;9.372;2023-06-22T04:14:25;8.90;;;5.60;;
8098;SDS011;4092;47.876;9.372;2023-06-22T04:16:52;8.73;;;4.83;;
8098;SDS011;4092;47.876;9.372;2023-06-22T04:19:20;10.13;;;4.50;;
8098;SDS011;4092;47.876;9.372;2023-06-22T04:21:48;11.70;;;5.23;;
8098;SDS011;4092;47.876;9.372;2023-06-22T04:24:15;6.60;;;4.50;;
8098;SDS011;4092;47.876;9.372;2023-06-22T04:26:42;10.07;;;5.80;;
8098;SDS011;4092;47.876;9.372;2023-06-22T04:29:10;13.57;;;6.37;;
8098;SDS011;4092;47.876;9.372;2023-06-22T04:31:37;15.40;;;7.00;;
8098;SDS011;4092;47.876;9.372;2023-06-22T04:34:05;9.17;;;5.70;;
8098;SDS011;4092;47.876;9.372;2023-06-22T04:36:37;13.23;;;5.60;;
8098;SDS011;4092;47.876;9.372;2023-06-22T04:39:07;8.10;;;4.53;;
8098;SDS011;4092;47.876;9.372;2023-06-22T04:41:35;7.60;;;5.77;;
8098;SDS011;4092;47.876;9.372;2023-06-22T04:44:08;11.37;;;5.50;;
8098;SDS011;4092;47.876;9.372;2023-06-22T04:46:36;9.50;;;5.97;;
8098;SDS011;4092;47.876;9.372;2023-06-22T04:49:04;15.23;;;6.60;;
8098;SDS011;4092;47.876;9.372;2023-06-22T04:51:34;11.97;;;6.10;;
8098;SDS011;4092;47.876;9.372;2023-06-22T04:54:07;11.43;;;5.80;;
8098;SDS011;4092;47.876;9.372;2023-06-22T04:56:35;12.43;;;6.17;;
8098;SDS011;4092;47.876;9.372;2023-06-22T04:59:02;11.70;;;5.73;;
8098;SDS011;4092;47.876;9.372;2023-06-22T05:01:29;9.10;;;5.40;;
8098;SDS011;4092;47.876;9.372;2023-06-22T05:03:57;10.40;;;6.20;;
8098;SDS011;4092;47.876;9.372;2023-06-22T05:06:26;11.63;;;6.03;;
8098;SDS011;4092;47.876;9.372;2023-06-22T05:08:55;14.37;;;4.67;;
8098;SDS011;4092;47.876;9.372;2023-06-22T05:11:23;7.20;;;5.17;;
8098;SDS011;4092;47.876;9.372;2023-06-22T05:13:50;12.30;;;6.07;;
8098;SDS011;4092;47.876;9.372;2023-06-22T05:16:18;8.00;;;5.40;;
8098;SDS011;4092;47.876;9.372;2023-06-22T05:18:48;11.63;;;6.20;;
8098;SDS011;4092;47.876;9.372;2023-06-22T05:21:16;11.60;;;6.20;;
8098;SDS011;4092;47.876;9.372;2023-06-22T05:23:44;10.17;;;5.13;;
8098;SDS011;4092;47.876;9.372;2023-06-22T05:26:12;11.70;;;4.80;;
8098;SDS011;4092;47.876;9.372;2023-06-22T05:28:39;9.40;;;5.70;;
8098;SDS011;4092;47.876;9.372;2023-06-22T05:31:06;9.10;;;5.70;;
8098;SDS011;4092;47.876;9.372;2023-06-22T05:33:33;10.63;;;5.87;;
8098;SDS011;4092;47.876;9.372;2023-06-22T05:36:00;12.73;;;6.40;;
8098;SDS011;4092;47.876;9.372;2023-06-22T05:38:27;19.07;;;5.90;;
8098;SDS011;4092;47.876;9.372;2023-06-22T05:40:54;12.83;;;6.17;;
8098;SDS011;4092;47.876;9.372;2023-06-22T05:43:22;11.83;;;7.67;;
8098;SDS011;4092;47.876;9.372;2023-06-22T05:45:49;12.27;;;5.70;;
8098;SDS011;4092;47.876;9.372;2023-06-22T05:48:16;15.53;;;6.30;;
8098;SDS011;4092;47.876;9.372;2023-06-22T05:50:43;11.53;;;6.63;;
8098;SDS011;4092;47.876;9.372;2023-06-22T05:53:10;13.43;;;6.53;;
8098;SDS011;4092;47.876;9.372;2023-06-22T05:55:37;8.50;;;5.00;;
8098;SDS011;4092;47.876;9.372;2023-06-22T05:58:04;22.60;;;8.03;;
8098;SDS011;4092;47.876;9.372;2023-06-22T06:00:33;19.57;;;6.40;;
8098;SDS011;4092;47.876;9.372;2023-06-22T06:03:00;9.60;;;5.63;;
8098;SDS011;4092;47.876;9.372;2023-06-22T06:05:28;12.83;;;6.33;;
8098;SDS011;4092;47.876;9.372;2023-06-22T06:07:55;10.60;;;5.33;;
8098;SDS011;4092;47.876;9.372;2023-06-22T06:10:22;12.73;;;6.17;;
8098;SDS011;4092;47.876;9.372;2023-06-22T06:12:50;12.83;;;8.70;;
8098;SDS011;4092;47.876;9.372;2023-06-22T06:15:17;13.60;;;6.33;;
8098;SDS011;4092;47.876;9.372;2023-06-22T06:17:48;10.60;;;5.50;;
8098;SDS011;4092;47.876;9.372;2023-06-22T06:20:17;11.80;;;6.23;;
8098;SDS011;4092;47.876;9.372;2023-06-22T06:22:45;15.53;;;6.83;;
8098;SDS011;4092;47.876;9.372;2023-06-22T06:25:12;10.50;;;4.80;;
8098;SDS011;4092;47.876;9.372;2023-06-22T06:27:41;14.20;;;6.40;;
8098;SDS011;4092;47.876;9.372;2023-06-22T06:30:08;13.70;;;6.20;;
8098;SDS011;4092;47.876;9.372;2023-06-22T06:32:36;8.80;;;6.10;;
8098;SDS011;4092;47.876;9.372;2023-06-22T06:35:06;9.37;;;5.87;;
8098;SDS011;4092;47.876;9.372;2023-06-22T06:37:35;9.57;;;6.27;;
8098;SDS011;4092;47.876;9.372;2023-06-22T06:40:04;17.00;;;5.90;;
8098;SDS011;4092;47.876;9.372;2023-06-22T06:42:35;11.43;;;5.70;;
8098;SDS011;4092;47.876;9.372;2023-06-22T06:45:05;9.60;;;5.93;;
8098;SDS011;4092;47.876;9.372;2023-06-22T06:47:33;9.77;;;6.27;;
8098;SDS011;4092;47.876;9.372;2023-06-22T06:50:00;10.80;;;6.10;;
8098;SDS011;4092;47.876;9.372;2023-06-22T06:52:28;7.93;;;5.63;;
8098;SDS011;4092;47.876;9.372;2023-06-22T06:54:56;22.00;;;6.27;;
8098;SDS011;4092;47.876;9.372;2023-06-22T06:57:23;8.10;;;4.90;;
8098;SDS011;4092;47.876;9.372;2023-06-22T06:59:53;8.50;;;6.17;;
8098;SDS011;4092;47.876;9.372;2023-06-22T07:02:21;13.03;;;7.60;;
8098;SDS011;4092;47.876;9.372;2023-06-22T07:04:49;11.20;;;5.57;;
8098;SDS011;4092;47.876;9.372;2023-06-22T07:07:16;7.50;;;4.80;;
8098;SDS011;4092;47.876;9.372;2023-06-22T07:09:44;8.83;;;4.87;;
8098;SDS011;4092;47.876;9.372;2023-06-22T07:12:11;8.60;;;5.67;;
8098;SDS011;4092;47.876;9.372;2023-06-22T07:14:38;7.80;;;5.53;;
8098;SDS011;4092;47.876;9.372;2023-06-22T07:17:05;16.10;;;5.70;;
8098;SDS011;4092;47.876;9.372;2023-06-22T07:19:32;11.73;;;5.10;;
8098;SDS011;4092;47.876;9.372;2023-06-22T07:21:59;13.50;;;5.07;;
8098;SDS011;4092;47.876;9.372;2023-06-22T07:24:28;10.67;;;5.80;;
8098;SDS011;4092;47.876;9.372;2023-06-22T07:26:56;11.80;;;6.00;;
8098;SDS011;4092;47.876;9.372;2023-06-22T07:29:24;10.30;;;6.23;;
8098;SDS011;4092;47.876;9.372;2023-06-22T07:31:51;8.10;;;4.40;;
8098;SDS011;4092;47.876;9.372;2023-06-22T07:34:21;9.40;;;5.50;;
8098;SDS011;4092;47.876;9.372;2023-06-22T07:36:49;11.13;;;7.37;;
8098;SDS011;4092;47.876;9.372;2023-06-22T07:39:16;9.27;;;4.87;;
8098;SDS011;4092;47.876;9.372;2023-06-22T07:41:43;8.87;;;5.40;;
8098;SDS011;4092;47.876;9.372;2023-06-22T07:44:11;7.47;;;4.70;;
8098;SDS011;4092;47.876;9.372;2023-06-22T07:46:38;8.70;;;4.63;;
8098;SDS011;4092;47.876;9.372;2023-06-22T07:49:05;9.33;;;4.70;;
8098;SDS011;4092;47.876;9.372;2023-06-22T07:51:33;6.77;;;4.27;;
8098;SDS011;4092;47.876;9.372;2023-06-22T07:54:00;7.93;;;4.90;;
8098;SDS011;4092;47.876;9.372;2023-06-22T07:56:27;15.33;;;4.47;;
8098;SDS011;4092;47.876;9.372;2023-06-22T07:58:54;8.97;;;4.57;;
8098;SDS011;4092;47.876;9.372;2023-06-22T08:01:24;9.10;;;4.47;;
8098;SDS011;4092;47.876;9.372;2023-06-22T08:03:51;10.87;;;5.13;;
8098;SDS011;4092;47.876;9.372;2023-06-22T08:06:18;9.13;;;6.03;;
8098;SDS011;4092;47.876;9.372;2023-06-22T08:08:45;10.60;;;4.57;;
8098;SDS011;4092;47.876;9.372;2023-06-22T08:11:14;10.10;;;5.00;;
8098;SDS011;4092;47.876;9.372;2023-06-22T08:13:41;9.43;;;5.30;;
8098;SDS011;4092;47.876;9.372;2023-06-22T08:16:08;8.90;;;5.10;;
8098;SDS011;4092;47.876;9.372;2023-06-22T08:18:36;8.37;;;4.63;;
8098;SDS011;4092;47.876;9.372;2023-06-22T08:21:03;8.40;;;5.70;;
8098;SDS011;4092;47.876;9.372;2023-06-22T08:23:30;8.93;;;4.20;;
8098;SDS011;4092;47.876;9.372;2023-06-22T08:25:58;8.10;;;4.50;;
8098;SDS011;4092;47.876;9.372;2023-06-22T08:28:25;7.03;;;4.73;;
8098;SDS011;4092;47.876;9.372;2023-06-22T08:30:52;5.97;;;4.23;;
8098;SDS011;4092;47.876;9.372;2023-06-22T08:33:20;10.07;;;4.80;;
8098;SDS011;4092;47.876;9.372;2023-06-22T08:35:50;10.70;;;4.20;;
8098;SDS011;4092;47.876;9.372;2023-06-22T08:38:17;12.23;;;5.60;;
8098;SDS011;4092;47.876;9.372;2023-06-22T08:40:44;11.70;;;5.10;;
8098;SDS011;4092;47.876;9.372;2023-06-22T08:43:12;11.90;;;5.50;;
8098;SDS011;4092;47.876;9.372;2023-06-22T08:45:39;16.63;;;5.87;;
8098;SDS011;4092;47.876;9.372;2023-06-22T08:48:06;9.17;;;4.80;;
8098;SDS011;4092;47.876;9.372;2023-06-22T08:50:32;9.80;;;5.60;;
8098;SDS011;4092;47.876;9.372;2023-06-22T08:53:02;10.33;;;5.30;;
8098;SDS011;4092;47.876;9.372;2023-06-22T08:55:29;14.43;;;5.80;;
8098;SDS011;4092;47.876;9.372;2023-06-22T08:57:56;12.63;;;4.30;;
8098;SDS011;4092;47.876;9.372;2023-06-22T09:00:24;17.50;;;5.13;;
8098;SDS011;4092;47.876;9.372;2023-06-22T09:02:52;11.00;;;4.80;;
8098;SDS011;4092;47.876;9.372;2023-06-22T09:05:23;9.63;;;6.43;;
8098;SDS011;4092;47.876;9.372;2023-06-22T09:07:51;9.40;;;5.57;;
8098;SDS011;4092;47.876;9.372;2023-06-22T09:10:21;11.13;;;5.80;;
8098;SDS011;4092;47.876;9.372;2023-06-22T09:12:49;10.73;;;6.23;;
8098;SDS011;4092;47.876;9.372;2023-06-22T09:15:17;9.57;;;5.57;;
8098;SDS011;4092;47.876;9.372;2023-06-22T09:17:44;8.57;;;5.10;;
8098;SDS011;4092;47.876;9.372;2023-06-22T09:20:11;10.30;;;4.73;;
8098;SDS011;4092;47.876;9.372;2023-06-22T09:22:38;12.53;;;6.10;;
8098;SDS011;4092;47.876;9.372;2023-06-22T09:25:06;7.40;;;5.20;;
8098;SDS011;4092;47.876;9.372;2023-06-22T09:27:34;13.03;;;4.67;;
8098;SDS011;4092;47.876;9.372;2023-06-22T09:30:01;8.43;;;5.30;;
8098;SDS011;4092;47.876;9.372;2023-06-22T09:32:29;12.03;;;4.57;;
8098;SDS011;4092;47.876;9.372;2023-06-22T09:34:58;10.10;;;4.60;;
8098;SDS011;4092;47.876;9.372;2023-06-22T09:37:26;9.33;;;4.90;;
8098;SDS011;4092;47.876;9.372;2023-06-22T09:39:53;13.60;;;5.63;;
8098;SDS011;4092;47.876;9.372;2023-06-22T09:42:20;8.60;;;5.30;;
8098;SDS011;4092;47.876;9.372;2023-06-22T09:44:48;7.80;;;4.23;;
8098;SDS011;4092;47.876;9.372;2023-06-22T09:47:15;7.60;;;3.67;;
8098;SDS011;4092;47.876;9.372;2023-06-22T09:49:42;9.23;;;5.67;;
8098;SDS011;4092;47.876;9.372;2023-06-22T09:52:09;9.00;;;4.97;;
8098;SDS011;4092;47.876;9.372;2023-06-22T09:54:37;12.00;;;6.60;;
8098;SDS011;4092;47.876;9.372;2023-06-22T09:57:04;8.90;;;4.97;;
8098;SDS011;4092;47.876;9.372;2023-06-22T09:59:31;8.13;;;4.23;;
8098;SDS011;4092;47.876;9.372;2023-06-22T10:01:59;8.80;;;4.17;;
8098;SDS011;4092;47.876;9.372;2023-06-22T10:04:27;5.83;;;4.17;;
8098;SDS011;4092;47.876;9.372;2023-06-22T10:06:53;8.50;;;3.73;;
8098;SDS011;4092;47.876;9.372;2023-06-22T10:09:20;5.40;;;3.57;;
8098;SDS011;4092;47.876;9.372;2023-06-22T10:11:47;7.90;;;4.13;;
8098;SDS011;4092;47.876;9.372;2023-06-22T10:14:15;5.07;;;3.00;;
8098;SDS011;4092;47.876;9.372;2023-06-22T10:16:42;6.07;;;3.00;;
8098;SDS011;4092;47.876;9.372;2023-06-22T10:19:10;7.23;;;4.83;;
8098;SDS011;4092;47.876;9.372;2023-06-22T10:21:37;10.07;;;5.10;;
8098;SDS011;4092;47.876;9.372;2023-06-22T10:24:04;12.60;;;4.57;;
8098;SDS011;4092;47.876;9.372;2023-06-22T10:26:32;10.83;;;4.73;;
8098;SDS011;4092;47.876;9.372;2023-06-22T10:28:59;5.73;;;3.23;;
8098;SDS011;4092;47.876;9.372;2023-06-22T10:31:26;5.50;;;3.60;;
8098;SDS011;4092;47.876;9.372;2023-06-22T10:33:53;7.10;;;3.77;;
8098;SDS011;4092;47.876;9.372;2023-06-22T10:36:22;8.90;;;3.77;;
8098;SDS011;4092;47.876;9.372;2023-06-22T10:38:49;3.20;;;2.50;;
8098;SDS011;4092;47.876;9.372;2023-06-22T10:41:18;9.17;;;2.90;;
8098;SDS011;4092;47.876;9.372;2023-06-22T10:43:45;7.27;;;3.90;;
8098;SDS011;4092;47.876;9.372;2023-06-22T10:46:12;8.43;;;3.00;;
8098;SDS011;4092;47.876;9.372;2023-06-22T10:48:39;5.90;;;3.00;;
8098;SDS011;4092;47.876;9.372;2023-06-22T10:51:06;5.63;;;3.43;;
8098;SDS011;4092;47.876;9.372;2023-06-22T10:53:34;9.23;;;3.00;;
8098;SDS011;4092;47.876;9.372;2023-06-22T10:56:01;4.40;;;3.67;;
8098;SDS011;4092;47.876;9.372;2023-06-22T10:58:29;9.57;;;4.40;;
8098;SDS011;4092;47.876;9.372;2023-06-22T11:00:55;6.33;;;4.07;;
8098;SDS011;4092;47.876;9.372;2023-06-22T11:03:24;8.00;;;3.80;;
8098;SDS011;4092;47.876;9.372;2023-06-22T11:05:51;8.93;;;3.07;;
8098;SDS011;4092;47.876;9.372;2023-06-22T11:08:18;8.10;;;3.50;;
8098;SDS011;4092;47.876;9.372;2023-06-22T11:10:47;16.23;;;3.50;;
8098;SDS011;4092;47.876;9.372;2023-06-22T11:13:14;11.70;;;3.77;;
8098;SDS011;4092;47.876;9.372;2023-06-22T11:15:41;7.10;;;2.40;;
8098;SDS011;4092;47.876;9.372;2023-06-22T11:18:07;9.83;;;2.97;;
8098;SDS011;4092;47.876;9.372;2023-06-22T11:20:34;5.13;;;2.47;;
8098;SDS011;4092;47.876;9.372;2023-06-22T11:23:04;12.30;;;4.67;;
8098;SDS011;4092;47.876;9.372;2023-06-22T11:25:31;4.67;;;3.10;;
8098;SDS011;4092;47.876;9.372;2023-06-22T11:28:01;4.73;;;3.87;;
8098;SDS011;4092;47.876;9.372;2023-06-22T11:30:30;5.30;;;3.33;;
8098;SDS011;4092;47.876;9.372;2023-06-22T11:32:58;7.20;;;3.80;;
8098;SDS011;4092;47.876;9.372;2023-06-22T11:35:25;9.60;;;3.73;;
8098;SDS011;4092;47.876;9.372;2023-06-22T11:37:52;5.90;;;3.33;;
8098;SDS011;4092;47.876;9.372;2023-06-22T11:40:21;7.50;;;3.40;;
8098;SDS011;4092;47.876;9.372;2023-06-22T11:42:48;15.70;;;3.40;;
8098;SDS011;4092;47.876;9.372;2023-06-22T11:45:16;3.80;;;2.80;;
8098;SDS011;4092;47.876;9.372;2023-06-22T11:47:44;13.20;;;4.23;;
8098;SDS011;4092;47.876;9.372;2023-06-22T11:50:10;6.90;;;3.90;;
8098;SDS011;4092;47.876;9.372;2023-06-22T11:52:39;4.93;;;3.27;;
8098;SDS011;4092;47.876;9.372;2023-06-22T11:55:06;13.23;;;5.03;;
8098;SDS011;4092;47.876;9.372;2023-06-22T11:57:34;11.70;;;4.27;;
8098;SDS011;4092;47.876;9.372;2023-06-22T12:00:04;4.40;;;3.30;;
8098;SDS011;4092;47.876;9.372;2023-06-22T12:02:42;4.97;;;3.03;;
8098;SDS011;4092;47.876;9.372;2023-06-22T12:05:11;12.33;;;3.47;;
8098;SDS011;4092;47.876;9.372;2023-06-22T12:07:38;4.60;;;3.47;;
8098;SDS011;4092;47.876;9.372;2023-06-22T12:10:05;7.30;;;3.03;;
8098;SDS011;4092;47.876;9.372;2023-06-22T12:12:33;13.23;;;3.37;;
8098;SDS011;4092;47.876;9.372;2023-06-22T12:15:00;13.13;;;2.83;;
8098;SDS011;4092;47.876;9.372;2023-06-22T12:17:28;5.93;;;3.07;;
8098;SDS011;4092;47.876;9.372;2023-06-22T12:19:58;8.63;;;4.10;;
8098;SDS011;4092;47.876;9.372;2023-06-22T12:22:25;7.83;;;3.30;;
8098;SDS011;4092;47.876;9.372;2023-06-22T12:24:52;8.57;;;3.77;;
8098;SDS011;4092;47.876;9.372;2023-06-22T12:27:19;4.50;;;2.80;;
8098;SDS011;4092;47.876;9.372;2023-06-22T12:29:48;7.30;;;4.13;;
8098;SDS011;4092;47.876;9.372;2023-06-22T12:32:15;8.70;;;4.90;;
8098;SDS011;4092;47.876;9.372;2023-06-22T12:34:42;17.23;;;4.30;;
8098;SDS011;4092;47.876;9.372;2023-06-22T12:37:10;6.23;;;3.03;;
8098;SDS011;4092;47.876;9.372;2023-06-22T12:39:40;9.00;;;3.87;;
8098;SDS011;4092;47.876;9.372;2023-06-22T12:42:07;8.00;;;4.20;;
8098;SDS011;4092;47.876;9.372;2023-06-22T12:44:34;10.67;;;5.27;;
8098;SDS011;4092;47.876;9.372;2023-06-22T12:47:01;4.70;;;3.40;;
8098;SDS011;4092;47.876;9.372;2023-06-22T12:49:28;17.73;;;4.20;;
8098;SDS011;4092;47.876;9.372;2023-06-22T12:51:55;8.07;;;3.37;;
8098;SDS011;4092;47.876;9.372;2023-06-22T12:54:25;9.60;;;5.07;;
8098;SDS011;4092;47.876;9.372;2023-06-22T12:56:54;6.83;;;3.70;;
8098;SDS011;4092;47.876;9.372;2023-06-22T12:59:21;6.00;;;3.60;;
8098;SDS011;4092;47.876;9.372;2023-06-22T13:01:48;11.83;;;3.73;;
8098;SDS011;4092;47.876;9.372;2023-06-22T13:04:15;5.93;;;4.60;;
8098;SDS011;4092;47.876;9.372;2023-06-22T13:06:43;13.57;;;4.33;;
8098;SDS011;4092;47.876;9.372;2023-06-22T13:09:13;10.47;;;6.00;;
8098;SDS011;4092;47.876;9.372;2023-06-22T13:11:42;10.33;;;4.73;;
8098;SDS011;4092;47.876;9.372;2023-06-22T13:14:09;7.37;;;4.53;;
8098;SDS011;4092;47.876;9.372;2023-06-22T13:16:36;11.93;;;4.60;;
8098;SDS011;4092;47.876;9.372;2023-06-22T13:19:03;5.60;;;3.50;;
8098;SDS011;4092;47.876;9.372;2023-06-22T13:21:30;10.83;;;3.83;;
8098;SDS011;4092;47.876;9.372;2023-06-22T13:23:59;7.17;;;3.87;;
8098;SDS011;4092;47.876;9.372;2023-06-22T13:26:26;6.60;;;3.97;;
8098;SDS011;4092;47.876;9.372;2023-06-22T13:28:55;4.10;;;2.93;;
8098;SDS011;4092;47.876;9.372;2023-06-22T13:31:22;8.20;;;4.60;;
8098;SDS011;4092;47.876;9.372;2023-06-22T13:33:49;7.00;;;3.90;;
8098;SDS011;4092;47.876;9.372;2023-06-22T13:36:17;11.20;;;4.30;;
8098;SDS011;4092;47.876;9.372;2023-06-22T13:38:44;5.97;;;3.50;;
8098;SDS011;4092;47.876;9.372;2023-06-22T13:41:12;8.70;;;3.90;;
8098;SDS011;4092;47.876;9.372;2023-06-22T13:43:39;7.43;;;4.00;;
8098;SDS011;4092;47.876;9.372;2023-06-22T13:46:07;5.73;;;3.27;;
8098;SDS011;4092;47.876;9.372;2023-06-22T13:48:34;8.83;;;3.97;;
8098;SDS011;4092;47.876;9.372;2023-06-22T13:51:01;11.87;;;4.20;;
8098;SDS011;4092;47.876;9.372;2023-06-22T13:53:28;5.77;;;3.57;;
8098;SDS011;4092;47.876;9.372;2023-06-22T13:55:55;6.40;;;4.30;;
8098;SDS011;4092;47.876;9.372;2023-06-22T13:58:22;7.47;;;3.93;;
8098;SDS011;4092;47.876;9.372;2023-06-22T14:00:51;5.23;;;3.50;;
8098;SDS011;4092;47.876;9.372;2023-06-22T14:03:19;14.37;;;2.77;;
8098;SDS011;4092;47.876;9.372;2023-06-22T14:05:46;11.27;;;4.40;;
8098;SDS011;4092;47.876;9.372;2023-06-22T14:08:13;4.97;;;2.90;;
8098;SDS011;4092;47.876;9.372;2023-06-22T14:10:40;8.20;;;3.03;;
8098;SDS011;4092;47.876;9.372;2023-06-22T14:13:07;16.73;;;3.70;;
8098;SDS011;4092;47.876;9.372;2023-06-22T14:15:34;7.90;;;4.03;;
8098;SDS011;4092;47.876;9.372;2023-06-22T14:18:01;7.00;;;2.50;;
8098;SDS011;4092;47.876;9.372;2023-06-22T14:20:30;10.20;;;2.47;;
8098;SDS011;4092;47.876;9.372;2023-06-22T14:22:57;7.60;;;2.70;;
8098;SDS011;4092;47.876;9.372;2023-06-22T14:25:23;4.80;;;2.40;;
8098;SDS011;4092;47.876;9.372;2023-06-22T14:27:51;5.93;;;3.10;;
8098;SDS011;4092;47.876;9.372;2023-06-22T14:30:18;7.67;;;2.87;;
8098;SDS011;4092;47.876;9.372;2023-06-22T14:32:44;10.87;;;3.00;;
8098;SDS011;4092;47.876;9.372;2023-06-22T14:35:12;7.67;;;2.77;;
8098;SDS011;4092;47.876;9.372;2023-06-22T14:37:40;6.50;;;2.57;;
8098;SDS011;4092;47.876;9.372;2023-06-22T14:40:07;11.50;;;3.60;;
8098;SDS011;4092;47.876;9.372;2023-06-22T14:42:35;6.23;;;3.03;;
8098;SDS011;4092;47.876;9.372;2023-06-22T14:45:02;7.43;;;3.03;;
8098;SDS011;4092;47.876;9.372;2023-06-22T14:47:29;6.77;;;2.97;;
8098;SDS011;4092;47.876;9.372;2023-06-22T14:49:57;4.50;;;2.60;;
8098;SDS011;4092;47.876;9.372;2023-06-22T14:52:25;4.90;;;2.07;;
8098;SDS011;4092;47.876;9.372;2023-06-22T14:54:55;9.77;;;2.40;;
8098;SDS011;4092;47.876;9.372;2023-06-22T14:57:22;3.70;;;2.00;;
8098;SDS011;4092;47.876;9.372;2023-06-22T14:59:49;11.03;;;2.47;;
8098;SDS011;4092;47.876;9.372;2023-06-22T15:02:16;7.13;;;3.07;;
8098;SDS011;4092;47.876;9.372;2023-06-22T15:04:43;11.53;;;3.20;;
8098;SDS011;4092;47.876;9.372;2023-06-22T15:07:10;10.93;;;3.00;;
8098;SDS011;4092;47.876;9.372;2023-06-22T15:09:37;14.10;;;2.93;;
8098;SDS011;4092;47.876;9.372;2023-06-22T15:12:09;5.43;;;3.63;;
8098;SDS011;4092;47.876;9.372;2023-06-22T15:14:37;9.73;;;3.93;;